Terminal Aerodrome Forecast
Issued by NWS Melbourne, FL

Home | Current Version | Previous Version | Text Only | Print | Product List | Glossary On
Versions: 1 2 3 4 5 6 7 8 9 10 11 12 13 14
268
FTUS42 KMLB 281736
TAFDAB
TAF
KDAB 281736Z 2818/2918 04013KT P6SM SCT035
     FM290200 01005KT P6SM SCT060 SCT250
     FM290700 24003KT P6SM SCT060 BKN250
     FM291400 27007KT P6SM SCT030 SCT250=

USA.gov is the U.S. government's official web portal to all federal, state and local government web resources and services.